createdAt,value
2022-10-18T00:01:10.432Z,51.76
2022-10-18T00:03:39.425Z,51.81
2022-10-18T00:06:10.280Z,51.90
2022-10-18T00:08:40.065Z,51.95
2022-10-18T00:11:09.020Z,51.61
2022-10-18T00:13:37.608Z,51.64
2022-10-18T00:16:11.073Z,52.20
2022-10-18T00:18:39.796Z,51.67
2022-10-18T00:21:12.370Z,51.56
2022-10-18T00:23:41.123Z,51.90
2022-10-18T00:26:12.721Z,51.97
2022-10-18T00:28:41.881Z,51.86
2022-10-18T00:31:10.807Z,51.88
2022-10-18T00:33:39.444Z,51.26
2022-10-18T00:36:09.817Z,51.69
2022-10-18T00:38:39.007Z,51.21
2022-10-18T00:41:08.632Z,51.38
2022-10-18T00:43:52.740Z,51.35
2022-10-18T00:46:21.327Z,51.35
2022-10-18T00:48:50.377Z,51.13
2022-10-18T00:51:21.390Z,51.43
2022-10-18T00:53:50.446Z,51.01
2022-10-18T00:56:19.141Z,51.13
2022-10-18T00:58:49.151Z,51.50
2022-10-18T01:01:17.930Z,51.32
2022-10-18T01:03:46.800Z,51.04
2022-10-18T01:06:15.283Z,51.18
2022-10-18T01:08:59.214Z,51.51
2022-10-18T01:11:50.276Z,50.86
2022-10-18T01:14:31.672Z,51.33
2022-10-18T01:17:04.385Z,51.43
2022-10-18T01:20:28.432Z,51.33
2022-10-18T01:23:01.604Z,50.92
2022-10-18T01:25:42.079Z,50.86
2022-10-18T01:28:26.712Z,51.61
2022-10-18T01:31:00.154Z,51.95
2022-10-18T01:33:34.973Z,51.16
2022-10-18T01:36:08.665Z,51.62
2022-10-18T01:38:39.616Z,51.59
2022-10-18T01:41:14.796Z,51.90
2022-10-18T01:43:46.728Z,51.97
2022-10-18T01:46:21.072Z,51.88
2022-10-18T01:48:50.410Z,51.96
2022-10-18T01:51:21.250Z,51.34
2022-10-18T01:53:49.731Z,51.51
2022-10-18T01:56:28.849Z,51.17
2022-10-18T01:59:04.033Z,51.72
2022-10-18T02:01:45.038Z,51.24
2022-10-18T02:04:24.346Z,51.25
2022-10-18T02:06:59.444Z,51.13
2022-10-18T02:09:35.743Z,50.84
2022-10-18T02:12:06.141Z,51.12
2022-10-18T02:14:35.957Z,51.09
2022-10-18T02:17:09.707Z,51.51
2022-10-18T02:19:41.727Z,51.14
2022-10-18T02:22:13.309Z,51.16
2022-10-18T02:24:46.233Z,51.45
2022-10-18T02:27:14.867Z,51.32
2022-10-18T02:29:44.535Z,51.89
2022-10-18T02:32:21.787Z,51.52
2022-10-18T02:34:58.458Z,51.73
2022-10-18T02:37:32.269Z,51.23
2022-10-18T02:40:00.732Z,51.06
2022-10-18T02:42:35.363Z,50.58
2022-10-18T02:45:04.674Z,50.51
2022-10-18T02:47:34.486Z,50.68
2022-10-18T02:50:03.083Z,51.42
2022-10-18T02:52:32.068Z,50.78
2022-10-18T02:55:01.421Z,51.33
2022-10-18T02:57:31.704Z,50.70
2022-10-18T03:00:00.373Z,51.43
2022-10-18T03:02:28.866Z,50.76
2022-10-18T03:04:58.631Z,51.10
2022-10-18T03:07:27.297Z,51.42
2022-10-18T03:09:55.720Z,51.22
2022-10-18T03:12:24.155Z,50.45
2022-10-18T03:14:52.731Z,51.11
2022-10-18T03:17:21.186Z,50.50
2022-10-18T03:19:49.601Z,51.10
2022-10-18T03:22:19.709Z,50.41
2022-10-18T03:24:48.214Z,50.67
2022-10-18T03:27:16.607Z,50.62
2022-10-18T03:29:45.085Z,50.87
2022-10-18T03:32:13.419Z,50.70
2022-10-18T03:34:41.932Z,50.75
2022-10-18T03:37:10.346Z,50.80
2022-10-18T03:39:40.137Z,50.86
2022-10-18T03:42:08.666Z,50.68
2022-10-18T03:44:37.073Z,50.85
2022-10-18T03:47:05.648Z,51.06
2022-10-18T03:52:07.510Z,51.19
2022-10-18T03:54:35.901Z,51.53
2022-10-18T03:57:05.764Z,51.10
2022-10-18T03:59:34.545Z,51.00
2022-10-18T04:02:03.042Z,50.98
2022-10-18T04:04:31.611Z,51.73
2022-10-18T04:07:00.045Z,51.60
2022-10-18T04:09:28.515Z,51.25
2022-10-18T04:11:56.969Z,51.40
2022-10-18T04:14:26.918Z,51.71
2022-10-18T04:16:55.437Z,51.25
2022-10-18T04:19:23.806Z,51.68
2022-10-18T04:21:52.327Z,51.75
2022-10-18T04:24:20.885Z,51.59
2022-10-18T04:26:49.471Z,52.14
2022-10-18T04:29:17.904Z,51.99
2022-10-18T04:31:48.374Z,52.13
2022-10-18T04:34:16.805Z,52.13
2022-10-18T04:36:45.283Z,51.88
2022-10-18T04:39:13.733Z,52.04
2022-10-18T04:41:42.192Z,51.49
2022-10-18T04:44:10.664Z,51.49
2022-10-18T04:46:39.013Z,51.47
2022-10-18T04:49:08.978Z,51.43
2022-10-18T04:51:38.308Z,51.57
2022-10-18T04:54:06.867Z,51.88
2022-10-18T04:56:35.366Z,51.46
2022-10-18T04:59:03.960Z,51.84
2022-10-18T05:01:32.359Z,51.67
2022-10-18T05:04:01.063Z,51.76
2022-10-18T05:06:30.930Z,51.25
2022-10-18T05:08:59.409Z,51.83
2022-10-18T05:11:27.858Z,51.42
2022-10-18T05:13:56.368Z,51.37
2022-10-18T05:16:24.782Z,51.90
2022-10-18T05:18:53.253Z,51.85
2022-10-18T05:21:21.682Z,52.06
2022-10-18T05:23:51.539Z,52.15
2022-10-18T05:26:19.962Z,51.61
2022-10-18T05:28:48.414Z,51.40
2022-10-18T05:31:16.829Z,51.58
2022-10-18T05:33:45.312Z,52.05
2022-10-18T05:36:13.721Z,51.46
2022-10-18T05:38:43.568Z,51.58
2022-10-18T05:41:13.996Z,51.36
2022-10-18T05:43:42.807Z,51.61
2022-10-18T05:46:15.315Z,51.36
2022-10-18T05:48:45.115Z,51.28
2022-10-18T05:51:13.644Z,51.14
2022-10-18T05:53:42.076Z,51.18
2022-10-18T05:56:12.089Z,51.16
2022-10-18T05:58:42.186Z,51.26
2022-10-18T06:01:11.611Z,51.16
2022-10-18T06:03:40.075Z,50.77
2022-10-18T06:06:10.266Z,51.06
2022-10-18T06:08:40.498Z,51.01
2022-10-18T06:11:09.515Z,50.41
2022-10-18T06:13:42.937Z,50.35
2022-10-18T06:16:12.894Z,50.50
2022-10-18T06:18:41.781Z,50.21
2022-10-18T06:21:11.068Z,50.71
2022-10-18T06:23:39.331Z,50.83
2022-10-18T06:26:08.964Z,50.86
2022-10-18T06:28:38.839Z,50.68
2022-10-18T06:31:08.738Z,50.21
2022-10-18T06:33:37.561Z,50.48
2022-10-18T06:36:08.246Z,50.33
2022-10-18T06:38:36.740Z,50.20
2022-10-18T06:41:06.304Z,50.07
2022-10-18T06:43:34.871Z,50.33
2022-10-18T06:46:05.248Z,50.34
2022-10-18T06:48:36.201Z,49.75
2022-10-18T06:51:07.633Z,50.43
2022-10-18T06:53:44.131Z,49.90
2022-10-18T06:56:17.304Z,49.95
2022-10-18T06:58:45.732Z,50.01
2022-10-18T07:01:16.414Z,50.06
2022-10-18T07:03:47.616Z,50.15
2022-10-18T07:06:18.582Z,50.39
2022-10-18T07:08:47.949Z,50.68
2022-10-18T07:11:16.897Z,50.53
2022-10-18T07:13:45.395Z,50.71
2022-10-18T07:16:18.168Z,50.43
2022-10-18T07:18:49.971Z,50.02
2022-10-18T07:21:20.560Z,50.49
2022-10-18T07:23:49.777Z,50.59
2022-10-18T07:26:20.801Z,50.54
2022-10-18T07:28:51.759Z,49.97
2022-10-18T07:31:20.341Z,50.51
2022-10-18T07:33:50.147Z,50.02
2022-10-18T07:36:18.754Z,49.94
2022-10-18T07:38:47.149Z,49.97
2022-10-18T07:41:16.099Z,49.96
2022-10-18T07:43:46.410Z,50.12
2022-10-18T07:46:16.419Z,50.00
2022-10-18T07:48:44.939Z,50.00
2022-10-18T07:51:15.345Z,50.65
2022-10-18T07:53:43.930Z,50.11
2022-10-18T07:56:16.641Z,50.21
2022-10-18T07:58:46.248Z,50.20
2022-10-18T08:01:15.811Z,50.17
2022-10-18T08:03:44.783Z,50.62
2022-10-18T08:06:16.535Z,50.43
2022-10-18T08:08:45.300Z,50.17
2022-10-18T08:11:16.635Z,50.08
2022-10-18T08:13:45.646Z,50.11
2022-10-18T08:16:15.749Z,50.23
2022-10-18T08:18:44.216Z,50.29
2022-10-18T08:21:15.281Z,50.67
2022-10-18T08:23:44.011Z,50.24
2022-10-18T08:26:15.122Z,50.84
2022-10-18T08:28:53.542Z,50.42
2022-10-18T08:31:27.418Z,51.02
2022-10-18T08:33:57.393Z,51.04
2022-10-18T08:36:27.270Z,50.39
2022-10-18T08:38:55.749Z,50.55
2022-10-18T08:41:44.526Z,50.50
2022-10-18T08:44:18.630Z,50.94
2022-10-18T08:46:49.209Z,50.48
2022-10-18T08:49:26.738Z,50.86
2022-10-18T08:51:57.980Z,50.75
2022-10-18T08:54:33.865Z,50.67
2022-10-18T08:57:04.208Z,50.33
2022-10-18T08:59:40.394Z,51.09
2022-10-18T09:02:18.423Z,51.21
2022-10-18T09:04:52.564Z,51.47
2022-10-18T09:07:46.913Z,51.40
2022-10-18T09:10:27.425Z,51.27
2022-10-18T09:13:16.120Z,51.38
2022-10-18T09:15:48.597Z,51.86
2022-10-18T09:18:44.213Z,51.92
2022-10-18T09:21:22.796Z,52.50
2022-10-18T09:24:05.498Z,51.96
2022-10-18T09:26:42.904Z,52.09
2022-10-18T09:29:28.708Z,52.93
2022-10-18T09:32:04.824Z,52.50
2022-10-18T09:34:40.054Z,53.25
2022-10-18T09:37:15.030Z,52.62
2022-10-18T09:39:47.150Z,53.16
2022-10-18T09:42:26.633Z,52.68
2022-10-18T09:45:00.225Z,53.12
2022-10-18T09:47:35.246Z,52.95
2022-10-18T09:50:07.537Z,52.79
2022-10-18T09:52:40.743Z,53.20
2022-10-18T09:55:19.853Z,53.20
2022-10-18T09:57:53.877Z,53.19
2022-10-18T10:00:27.253Z,52.96
2022-10-18T10:02:55.668Z,52.92
2022-10-18T10:05:24.053Z,52.77
2022-10-18T10:07:59.782Z,52.63
2022-10-18T10:10:31.137Z,52.59
2022-10-18T10:13:08.201Z,52.28
2022-10-18T10:15:39.325Z,51.77
2022-10-18T10:18:21.316Z,52.17
2022-10-18T10:20:53.457Z,51.77
2022-10-18T10:23:24.367Z,51.51
2022-10-18T10:25:56.579Z,51.45
2022-10-18T10:28:29.949Z,51.71
2022-10-18T10:31:19.455Z,51.33
2022-10-18T10:33:49.051Z,51.66
2022-10-18T10:36:19.888Z,51.49
2022-10-18T10:39:05.239Z,51.06
2022-10-18T10:41:35.820Z,51.42
2022-10-18T10:44:06.470Z,51.03
2022-10-18T10:46:37.371Z,51.52
2022-10-18T10:49:39.061Z,50.76
2022-10-18T10:52:08.196Z,51.52
2022-10-18T10:54:51.361Z,51.19
2022-10-18T10:57:25.421Z,50.83
2022-10-18T10:59:55.743Z,51.07
2022-10-18T11:02:27.846Z,50.45
2022-10-18T11:04:58.011Z,50.85
2022-10-18T11:07:31.404Z,50.25
2022-10-18T11:10:04.845Z,50.53
2022-10-18T11:12:37.813Z,50.12
2022-10-18T11:15:22.182Z,50.22
2022-10-18T11:18:03.843Z,50.40
2022-10-18T11:20:36.919Z,50.32
2022-10-18T11:23:09.446Z,50.25
2022-10-18T11:26:13.586Z,50.32
2022-10-18T11:29:06.835Z,49.81
2022-10-18T11:31:41.652Z,50.07
2022-10-18T11:34:40.292Z,50.14
2022-10-18T11:37:28.058Z,50.41
2022-10-18T11:40:05.028Z,50.03
2022-10-18T11:42:43.333Z,50.24
2022-10-18T11:45:27.187Z,50.44
2022-10-18T11:48:01.178Z,49.99
2022-10-18T11:50:38.795Z,50.13
2022-10-18T11:53:19.403Z,49.60
2022-10-18T11:56:01.151Z,49.55
2022-10-18T11:58:43.930Z,49.84
2022-10-18T12:01:26.243Z,49.80
2022-10-18T12:04:04.054Z,49.79
2022-10-18T12:06:36.493Z,50.05
2022-10-18T12:09:11.414Z,49.89
2022-10-18T12:11:47.174Z,50.09
2022-10-18T12:14:24.292Z,49.76
2022-10-18T12:17:27.839Z,49.86
2022-10-18T12:19:49.229Z,49.90
2022-10-18T12:22:24.430Z,50.07
2022-10-18T12:24:53.298Z,49.74
2022-10-18T12:27:29.647Z,49.79
2022-10-18T12:30:03.488Z,49.99
2022-10-18T12:32:36.218Z,49.44
2022-10-18T12:35:08.475Z,49.82
2022-10-18T12:37:52.557Z,49.50
2022-10-18T12:40:25.039Z,49.35
2022-10-18T12:42:54.800Z,49.63
2022-10-18T12:45:33.510Z,49.37
2022-10-18T12:48:06.825Z,49.16
2022-10-18T12:50:38.558Z,49.42
2022-10-18T12:53:17.704Z,49.36
2022-10-18T12:55:46.534Z,50.03
2022-10-18T12:58:27.796Z,49.55
2022-10-18T13:01:04.817Z,49.58
2022-10-18T13:04:01.702Z,49.97
2022-10-18T13:07:17.592Z,50.30
2022-10-18T13:10:41.042Z,49.90
2022-10-18T13:13:39.578Z,49.91
2022-10-18T13:16:22.611Z,50.10
2022-10-18T13:18:57.150Z,49.75
2022-10-18T13:21:41.899Z,49.68
2022-10-18T13:24:34.173Z,49.70
2022-10-18T13:27:40.660Z,50.02
2022-10-18T13:30:31.537Z,49.52
2022-10-18T13:33:16.803Z,49.65
2022-10-18T13:35:51.960Z,49.58
2022-10-18T13:38:59.656Z,49.29
2022-10-18T13:41:34.277Z,49.28
2022-10-18T13:44:28.854Z,49.46
2022-10-18T13:47:37.692Z,48.99
2022-10-18T13:50:29.058Z,49.17
2022-10-18T13:53:31.583Z,48.75
2022-10-18T13:56:23.168Z,48.72
2022-10-18T13:59:15.490Z,48.52
2022-10-18T14:01:57.150Z,49.00
2022-10-18T14:05:10.581Z,49.07
2022-10-18T14:07:44.498Z,48.95
2022-10-18T14:10:29.765Z,48.99
2022-10-18T14:13:16.190Z,48.72
2022-10-18T14:15:48.831Z,48.56
2022-10-18T14:18:22.157Z,49.14
2022-10-18T14:21:12.691Z,48.88
2022-10-18T14:23:44.741Z,49.50
2022-10-18T14:26:16.304Z,49.56
2022-10-18T14:29:02.193Z,49.81
2022-10-18T14:31:31.405Z,49.84
2022-10-18T14:33:59.815Z,49.92
2022-10-18T14:36:31.404Z,49.59
2022-10-18T14:39:02.130Z,49.82
2022-10-18T14:41:32.923Z,49.82
2022-10-18T14:44:21.357Z,50.05
2022-10-18T14:46:52.014Z,49.63
2022-10-18T14:49:21.873Z,49.80
2022-10-18T14:51:52.719Z,49.86
2022-10-18T14:54:29.027Z,50.01
2022-10-18T14:57:00.777Z,49.49
2022-10-18T14:59:33.837Z,49.89
2022-10-18T15:02:06.228Z,49.59
2022-10-18T15:04:34.750Z,49.30
2022-10-18T15:07:06.398Z,49.29
2022-10-18T15:09:36.959Z,49.31
2022-10-18T15:12:07.164Z,49.21
2022-10-18T15:14:38.031Z,49.09
2022-10-18T15:17:13.143Z,49.08
2022-10-18T15:19:54.343Z,49.08
2022-10-18T15:22:33.343Z,49.59
2022-10-18T15:25:19.603Z,49.27
2022-10-18T15:27:50.693Z,49.23
2022-10-18T15:30:25.618Z,49.28
2022-10-18T15:32:56.329Z,48.97
2022-10-18T15:35:28.846Z,49.40
2022-10-18T15:37:59.026Z,49.47
2022-10-18T15:40:34.083Z,49.26
2022-10-18T15:43:05.936Z,49.22
2022-10-18T15:45:38.687Z,49.58
2022-10-18T15:48:26.097Z,49.50
2022-10-18T15:50:56.340Z,49.31
2022-10-18T15:53:34.016Z,49.72
2022-10-18T15:56:05.096Z,49.67
2022-10-18T15:58:41.696Z,49.48
2022-10-18T16:01:17.283Z,49.94
2022-10-18T16:03:47.755Z,49.44
2022-10-18T16:06:18.378Z,49.71
2022-10-18T16:08:48.561Z,50.19
2022-10-18T16:11:18.857Z,49.78
2022-10-18T16:13:48.178Z,50.07
2022-10-18T16:16:20.323Z,50.27
2022-10-18T16:18:49.228Z,50.17
2022-10-18T16:21:20.897Z,50.08
2022-10-18T16:23:49.785Z,49.99
2022-10-18T16:26:19.704Z,50.47
2022-10-18T16:28:49.315Z,50.09
2022-10-18T16:31:21.975Z,50.67
2022-10-18T16:33:51.539Z,50.20
2022-10-18T16:36:23.434Z,50.51
2022-10-18T16:38:52.517Z,50.83
2022-10-18T16:41:20.925Z,50.86
2022-10-18T16:43:50.681Z,50.49
2022-10-18T16:46:22.886Z,50.66
2022-10-18T16:48:52.710Z,50.87
2022-10-18T16:51:21.498Z,50.32
2022-10-18T16:53:50.644Z,50.95
2022-10-18T16:56:19.848Z,51.13
2022-10-18T16:58:48.255Z,50.74
2022-10-18T17:01:18.690Z,50.92
2022-10-18T17:03:49.235Z,50.58
2022-10-18T17:06:20.022Z,50.58
2022-10-18T17:08:49.025Z,51.20
2022-10-18T17:11:19.073Z,51.01
2022-10-18T17:13:47.889Z,51.07
2022-10-18T17:16:25.136Z,50.68
2022-10-18T17:18:55.073Z,50.93
2022-10-18T17:21:24.288Z,51.33
2022-10-18T17:23:52.478Z,51.41
2022-10-18T17:26:28.789Z,51.11
2022-10-18T17:29:00.677Z,51.27
2022-10-18T17:31:31.747Z,51.24
2022-10-18T17:34:02.118Z,51.84
2022-10-18T17:36:31.411Z,51.45
2022-10-18T17:38:59.999Z,51.53
2022-10-18T17:41:28.426Z,51.69
2022-10-18T17:43:56.923Z,51.48
2022-10-18T17:46:25.376Z,51.72
2022-10-18T17:48:54.841Z,51.21
2022-10-18T17:51:24.882Z,51.59
2022-10-18T17:53:53.353Z,51.42
2022-10-18T17:56:21.899Z,51.52
2022-10-18T17:58:52.387Z,51.59
2022-10-18T18:01:23.148Z,51.77
2022-10-18T18:03:56.911Z,52.21
2022-10-18T18:06:31.156Z,52.08
2022-10-18T18:09:00.108Z,52.17
2022-10-18T18:11:29.499Z,52.07
2022-10-18T18:13:58.041Z,52.63
2022-10-18T18:16:28.056Z,52.63
2022-10-18T18:18:59.024Z,52.49
2022-10-18T18:21:29.057Z,52.14
2022-10-18T18:23:57.913Z,52.50
2022-10-18T18:26:26.943Z,52.56
2022-10-18T18:28:55.471Z,52.43
2022-10-18T18:31:26.133Z,52.48
2022-10-18T18:33:56.587Z,52.41
2022-10-18T18:36:28.904Z,52.42
2022-10-18T18:38:58.841Z,52.70
2022-10-18T18:41:28.276Z,52.69
2022-10-18T18:43:58.401Z,52.00
2022-10-18T18:46:28.931Z,52.75
2022-10-18T18:48:59.323Z,52.62
2022-10-18T18:51:28.107Z,52.42
2022-10-18T18:53:58.213Z,52.23
2022-10-18T18:56:29.088Z,52.71
2022-10-18T18:58:59.346Z,52.56
2022-10-18T19:01:29.791Z,52.35
2022-10-18T19:04:00.168Z,51.89
2022-10-18T19:06:30.164Z,52.05
2022-10-18T19:09:01.646Z,51.85
2022-10-18T19:11:33.133Z,51.92
2022-10-18T19:14:02.115Z,51.75
2022-10-18T19:16:31.899Z,51.69
2022-10-18T19:19:02.422Z,51.76
2022-10-18T19:21:33.069Z,51.60
2022-10-18T19:24:03.515Z,51.94
2022-10-18T19:26:35.735Z,52.19
2022-10-18T19:29:10.721Z,51.83
2022-10-18T19:31:40.430Z,51.99
2022-10-18T19:34:10.766Z,52.35
2022-10-18T19:36:40.411Z,52.12
2022-10-18T19:39:13.133Z,51.88
2022-10-18T19:41:41.573Z,51.85
2022-10-18T19:44:10.004Z,52.44
2022-10-18T19:46:38.664Z,52.41
2022-10-18T19:49:07.146Z,52.28
2022-10-18T19:51:35.594Z,52.22
2022-10-18T19:54:04.218Z,52.32
2022-10-18T19:56:34.194Z,51.84
2022-10-18T19:59:02.710Z,52.32
2022-10-18T20:01:31.240Z,52.42
2022-10-18T20:03:59.765Z,51.97
2022-10-18T20:06:28.495Z,52.52
2022-10-18T20:08:56.953Z,52.41
2022-10-18T20:11:27.900Z,52.24
2022-10-18T20:13:59.736Z,51.92
2022-10-18T20:16:31.192Z,52.33
2022-10-18T20:19:01.091Z,52.25
2022-10-18T20:21:31.593Z,52.12
2022-10-18T20:24:00.131Z,51.95
2022-10-18T20:26:28.628Z,51.53
2022-10-18T20:28:59.993Z,51.59
2022-10-18T20:31:30.495Z,51.70
2022-10-18T20:34:01.329Z,51.77
2022-10-18T20:36:31.207Z,51.80
2022-10-18T20:39:00.541Z,51.53
2022-10-18T20:41:30.618Z,51.52
2022-10-18T20:44:02.714Z,52.00
2022-10-18T20:46:32.654Z,51.68
2022-10-18T20:49:01.474Z,52.19
2022-10-18T20:51:30.227Z,52.13
2022-10-18T20:53:58.793Z,52.37
2022-10-18T20:56:27.864Z,52.36
2022-10-18T20:58:58.095Z,52.15
2022-10-18T21:01:29.829Z,52.41
2022-10-18T21:04:00.260Z,52.12
2022-10-18T21:06:30.241Z,52.22
2022-10-18T21:09:00.280Z,52.33
2022-10-18T21:11:30.670Z,52.26
2022-10-18T21:14:02.771Z,51.88
2022-10-18T21:16:34.025Z,52.02
2022-10-18T21:19:05.661Z,52.13
2022-10-18T21:21:34.413Z,51.92
2022-10-18T21:24:06.872Z,51.84
2022-10-18T21:26:36.858Z,52.08
2022-10-18T21:29:06.361Z,51.62
2022-10-18T21:31:39.220Z,51.75
2022-10-18T21:34:12.948Z,51.36
2022-10-18T21:36:42.622Z,51.72
2022-10-18T21:39:15.013Z,51.53
2022-10-18T21:41:44.112Z,51.26
2022-10-18T21:44:12.952Z,51.36
2022-10-18T21:46:44.193Z,51.59
2022-10-18T21:49:13.696Z,51.51
2022-10-18T21:51:42.859Z,51.43
2022-10-18T21:54:12.875Z,51.66
2022-10-18T21:56:42.105Z,51.40
2022-10-18T21:59:12.105Z,51.64
2022-10-18T22:01:43.712Z,51.72
2022-10-18T22:04:19.898Z,51.49
2022-10-18T22:06:48.395Z,51.64
2022-10-18T22:09:16.984Z,51.88
2022-10-18T22:11:49.137Z,51.99
2022-10-18T22:14:17.563Z,51.46
2022-10-18T22:16:47.501Z,52.05
2022-10-18T22:19:15.985Z,52.10
2022-10-18T22:21:44.418Z,52.12
2022-10-18T22:24:12.856Z,51.67
2022-10-18T22:26:43.307Z,51.89
2022-10-18T22:29:13.847Z,51.84
2022-10-18T22:31:45.186Z,51.63
2022-10-18T22:34:17.584Z,51.70
2022-10-18T22:36:46.707Z,51.89
2022-10-18T22:39:15.712Z,51.39
2022-10-18T22:41:44.911Z,51.27
2022-10-18T22:44:13.459Z,51.69
2022-10-18T22:46:42.766Z,51.36
2022-10-18T22:49:12.849Z,51.59
2022-10-18T22:51:42.784Z,51.02
2022-10-18T22:54:11.466Z,51.07
2022-10-18T22:56:40.007Z,51.24
2022-10-18T22:59:08.452Z,51.27
2022-10-18T23:01:37.415Z,51.49
2022-10-18T23:04:06.019Z,51.33
2022-10-18T23:06:37.152Z,51.38
2022-10-18T23:09:08.992Z,50.95
2022-10-18T23:11:38.497Z,51.39
2022-10-18T23:14:07.892Z,51.46
2022-10-18T23:16:37.020Z,51.61
2022-10-18T23:19:05.209Z,51.86
2022-10-18T23:21:35.826Z,51.62
2022-10-18T23:24:04.693Z,51.56
2022-10-18T23:26:34.559Z,51.49
2022-10-18T23:29:03.221Z,51.83
2022-10-18T23:31:33.523Z,51.37
2022-10-18T23:34:03.873Z,51.85
2022-10-18T23:36:33.734Z,51.70
2022-10-18T23:39:02.490Z,51.57
2022-10-18T23:41:31.013Z,51.50
2022-10-18T23:44:00.814Z,51.65
2022-10-18T23:46:29.337Z,51.78
2022-10-18T23:48:57.844Z,51.79
2022-10-18T23:51:26.338Z,51.48
2022-10-18T23:53:54.790Z,51.08
2022-10-18T23:56:23.202Z,51.69
2022-10-18T23:58:51.644Z,51.25
